createdAt,value
2018-07-20T00:00:20.693Z,7.27
2018-07-20T00:02:49.325Z,14.00
2018-07-20T00:05:18.081Z,9.00
2018-07-20T00:07:47.110Z,6.20
2018-07-20T00:10:15.808Z,6.37
2018-07-20T00:12:44.538Z,7.57
2018-07-20T00:15:13.220Z,7.40
2018-07-20T00:17:41.941Z,7.67
2018-07-20T00:20:10.620Z,9.07
2018-07-20T00:22:39.335Z,6.83
2018-07-20T00:25:08.057Z,10.43
2018-07-20T00:27:36.558Z,5.50
2018-07-20T00:30:05.242Z,6.30
2018-07-20T00:32:33.731Z,7.77
2018-07-20T00:35:02.408Z,5.90
2018-07-20T00:37:30.884Z,8.60
2018-07-20T00:39:59.608Z,9.60
2018-07-20T00:42:28.329Z,12.53
2018-07-20T00:44:57.039Z,7.93
2018-07-20T00:47:25.789Z,8.50
2018-07-20T00:49:54.486Z,12.80
2018-07-20T00:52:24.243Z,6.17
2018-07-20T00:54:53.041Z,9.33
2018-07-20T00:57:21.807Z,9.23
2018-07-20T00:59:50.457Z,5.97
2018-07-20T01:02:19.245Z,12.83
2018-07-20T01:04:47.953Z,6.40
2018-07-20T01:07:16.666Z,8.67
2018-07-20T01:09:45.355Z,11.17
2018-07-20T01:12:14.138Z,13.67
2018-07-20T01:14:42.875Z,10.33
2018-07-20T01:17:11.813Z,11.07
2018-07-20T01:19:40.511Z,10.10
2018-07-20T01:22:09.213Z,8.03
2018-07-20T01:24:37.976Z,8.63
2018-07-20T01:27:06.485Z,10.30
2018-07-20T01:29:35.075Z,8.33
2018-07-20T01:32:03.792Z,10.30
2018-07-20T01:34:32.515Z,8.93
2018-07-20T01:37:01.215Z,11.20
2018-07-20T01:39:29.992Z,7.40
2018-07-20T01:41:58.665Z,7.20
2018-07-20T01:44:27.220Z,12.47
2018-07-20T01:46:55.829Z,9.13
2018-07-20T01:49:24.360Z,8.30
2018-07-20T01:51:52.992Z,10.67
2018-07-20T01:54:21.532Z,7.87
2018-07-20T01:56:50.212Z,10.07
2018-07-20T01:59:18.905Z,5.80
2018-07-20T02:01:47.585Z,6.13
2018-07-20T02:04:16.292Z,6.77
2018-07-20T02:06:45.010Z,8.23
2018-07-20T02:09:13.497Z,12.27
2018-07-20T02:11:42.109Z,9.53
2018-07-20T02:14:10.839Z,6.27
2018-07-20T02:16:39.349Z,9.20
2018-07-20T02:19:07.772Z,8.97
2018-07-20T02:21:36.183Z,7.10
2018-07-20T02:24:04.786Z,10.67
2018-07-20T02:26:33.331Z,9.37
2018-07-20T02:29:02.004Z,10.43
2018-07-20T02:31:30.677Z,18.07
2018-07-20T02:33:59.205Z,8.97
2018-07-20T02:36:27.820Z,11.23
2018-07-20T02:38:56.602Z,6.40
2018-07-20T02:41:25.104Z,9.30
2018-07-20T02:43:54.116Z,26.27
2018-07-20T02:46:22.781Z,8.57
2018-07-20T02:48:51.533Z,7.77
2018-07-20T02:51:20.078Z,11.03
2018-07-20T02:53:48.759Z,16.03
2018-07-20T02:56:17.490Z,7.57
2018-07-20T02:58:46.227Z,7.13
2018-07-20T03:01:14.955Z,7.63
2018-07-20T03:03:43.706Z,11.03
2018-07-20T03:06:12.450Z,8.23
2018-07-20T03:08:41.181Z,10.40
2018-07-20T03:11:10.848Z,10.67
2018-07-20T03:13:39.593Z,9.77
2018-07-20T03:16:08.312Z,9.10
2018-07-20T03:18:37.063Z,11.80
2018-07-20T03:21:05.886Z,11.50
2018-07-20T03:23:34.608Z,11.60
2018-07-20T03:26:03.202Z,11.87
2018-07-20T03:28:32.014Z,9.77
2018-07-20T03:31:00.750Z,12.90
2018-07-20T03:33:29.265Z,8.60
2018-07-20T03:35:57.871Z,11.13
2018-07-20T03:38:26.611Z,11.33
2018-07-20T03:40:55.132Z,8.87
2018-07-20T03:43:23.511Z,10.63
2018-07-20T03:45:52.133Z,17.57
2018-07-20T03:48:20.854Z,9.40
2018-07-20T03:50:49.559Z,14.80
2018-07-20T03:53:18.310Z,8.90
2018-07-20T03:55:46.832Z,11.37
2018-07-20T03:58:15.517Z,11.80
2018-07-20T04:00:44.304Z,12.30
2018-07-20T04:03:12.973Z,11.57
2018-07-20T04:05:41.761Z,15.20
2018-07-20T04:08:10.492Z,11.27
2018-07-20T04:10:39.230Z,12.53
2018-07-20T04:13:08.041Z,11.20
2018-07-20T04:15:36.788Z,7.77
2018-07-20T04:20:40.245Z,9.00
2018-07-20T04:23:09.864Z,11.10
2018-07-20T04:25:38.421Z,9.50
2018-07-20T04:28:07.025Z,11.73
2018-07-20T04:30:35.793Z,8.50
2018-07-20T04:33:04.519Z,14.63
2018-07-20T04:35:33.184Z,9.83
2018-07-20T04:38:01.865Z,9.30
2018-07-20T04:40:31.293Z,11.70
2018-07-20T04:42:59.974Z,10.87
2018-07-20T04:45:29.257Z,9.10
2018-07-20T04:47:57.950Z,17.53
2018-07-20T04:50:26.658Z,10.73
2018-07-20T04:52:55.377Z,11.20
2018-07-20T04:55:24.099Z,7.53
2018-07-20T04:57:52.822Z,10.73
2018-07-20T05:00:21.343Z,7.83
2018-07-20T05:02:49.953Z,9.63
2018-07-20T05:05:18.712Z,10.77
2018-07-20T05:07:47.421Z,8.67
2018-07-20T05:10:16.150Z,9.23
2018-07-20T05:12:44.881Z,9.20
2018-07-20T05:15:13.601Z,11.80
2018-07-20T05:17:42.309Z,16.20
2018-07-20T05:20:11.006Z,10.57
2018-07-20T05:22:39.748Z,10.50
2018-07-20T05:25:08.455Z,8.47
2018-07-20T05:27:37.186Z,13.17
2018-07-20T05:30:05.984Z,14.97
2018-07-20T05:32:35.568Z,12.67
2018-07-20T05:35:04.919Z,8.17
2018-07-20T05:37:33.613Z,18.70
2018-07-20T05:40:02.416Z,11.53
2018-07-20T05:42:31.147Z,11.93
2018-07-20T05:44:59.892Z,16.87
2018-07-20T05:47:28.626Z,10.93
2018-07-20T05:49:57.372Z,10.47
2018-07-20T05:52:26.094Z,9.13
2018-07-20T05:54:54.729Z,10.23
2018-07-20T05:57:23.483Z,12.57
2018-07-20T05:59:52.178Z,8.03
2018-07-20T06:02:20.997Z,14.83
2018-07-20T06:04:49.675Z,9.50
2018-07-20T06:07:18.209Z,9.03
2018-07-20T06:09:46.741Z,8.60
2018-07-20T06:12:15.354Z,14.90
2018-07-20T06:14:43.974Z,11.73
2018-07-20T06:17:12.669Z,8.47
2018-07-20T06:19:41.406Z,9.40
2018-07-20T06:22:10.173Z,9.60
2018-07-20T06:24:38.840Z,13.27
2018-07-20T06:27:07.544Z,10.87
2018-07-20T06:29:36.282Z,7.33
2018-07-20T06:32:04.773Z,13.67
2018-07-20T06:34:33.389Z,11.00
2018-07-20T06:37:02.077Z,15.50
2018-07-20T06:39:30.853Z,8.20
2018-07-20T06:41:59.579Z,10.33
2018-07-20T06:44:28.269Z,9.40
2018-07-20T06:46:56.965Z,8.63
2018-07-20T06:49:25.684Z,10.87
2018-07-20T06:51:54.420Z,9.00
2018-07-20T06:54:23.169Z,6.03
2018-07-20T06:56:51.894Z,9.33
2018-07-20T06:59:20.609Z,10.90
2018-07-20T07:01:49.125Z,10.53
2018-07-20T07:04:17.765Z,8.17
2018-07-20T07:06:46.454Z,6.47
2018-07-20T07:09:15.172Z,7.40
2018-07-20T07:11:43.901Z,10.60
2018-07-20T07:14:12.587Z,9.20
2018-07-20T07:16:41.335Z,10.60
2018-07-20T07:19:10.058Z,15.03
2018-07-20T07:21:38.742Z,12.23
2018-07-20T07:24:07.523Z,7.83
2018-07-20T07:26:42.161Z,8.30
2018-07-20T07:29:10.869Z,8.20
2018-07-20T07:31:40.275Z,9.20
2018-07-20T07:34:09.001Z,11.30
2018-07-20T07:36:37.713Z,12.13
2018-07-20T07:39:08.892Z,9.83
2018-07-20T07:41:37.652Z,6.87
2018-07-20T07:44:06.798Z,10.83
2018-07-20T07:46:35.548Z,11.63
2018-07-20T07:49:04.252Z,7.00
2018-07-20T07:51:32.922Z,10.13
2018-07-20T07:54:01.626Z,6.23
2018-07-20T07:56:30.408Z,6.63
2018-07-20T07:58:59.100Z,8.53
2018-07-20T08:01:28.824Z,9.50
2018-07-20T08:03:57.652Z,9.60
2018-07-20T08:06:26.462Z,10.30
2018-07-20T08:08:55.152Z,8.27
2018-07-20T08:11:24.379Z,7.27
2018-07-20T08:13:53.145Z,5.23
2018-07-20T08:16:21.840Z,5.90
2018-07-20T08:18:50.589Z,9.10
2018-07-20T08:21:19.295Z,6.80
2018-07-20T08:23:48.071Z,7.10
2018-07-20T08:26:16.766Z,7.23
2018-07-20T08:28:45.488Z,9.00
2018-07-20T08:31:14.153Z,4.20
2018-07-20T08:33:42.858Z,5.33
2018-07-20T08:36:11.601Z,6.73
2018-07-20T08:38:40.313Z,5.50
2018-07-20T08:41:09.058Z,37.13
2018-07-20T08:43:37.484Z,8.87
2018-07-20T08:46:05.922Z,7.57
2018-07-20T08:48:34.545Z,9.07
2018-07-20T08:51:03.309Z,4.00
2018-07-20T08:53:32.045Z,6.87
2018-07-20T08:56:00.786Z,6.90
2018-07-20T08:58:29.513Z,12.10
2018-07-20T09:00:58.217Z,4.37
2018-07-20T09:03:26.898Z,4.40
2018-07-20T09:05:55.569Z,3.33
2018-07-20T09:08:24.251Z,5.43
2018-07-20T09:10:53.049Z,4.93
2018-07-20T09:13:21.840Z,5.13
2018-07-20T09:15:50.589Z,4.27
2018-07-20T09:18:19.084Z,4.30
2018-07-20T09:20:47.909Z,4.60
2018-07-20T09:23:16.274Z,12.17
2018-07-20T09:25:44.909Z,7.13
2018-07-20T09:28:13.692Z,10.23
2018-07-20T09:30:42.246Z,11.70
2018-07-20T09:33:10.645Z,9.00
2018-07-20T09:35:39.314Z,9.73
2018-07-20T09:38:08.047Z,3.90
2018-07-20T09:40:36.805Z,6.90
2018-07-20T09:43:05.546Z,7.63
2018-07-20T09:45:34.270Z,3.93
2018-07-20T09:48:02.955Z,4.27
2018-07-20T09:50:31.693Z,4.67
2018-07-20T09:53:00.413Z,6.70
2018-07-20T09:55:29.124Z,6.37
2018-07-20T09:57:57.940Z,4.03
2018-07-20T10:00:32.198Z,5.30
2018-07-20T10:03:00.713Z,7.30
2018-07-20T10:05:29.384Z,6.63
2018-07-20T10:07:58.126Z,6.17
2018-07-20T10:10:26.865Z,5.93
2018-07-20T10:12:55.600Z,6.20
2018-07-20T10:15:24.355Z,4.90
2018-07-20T10:17:53.061Z,11.50
2018-07-20T10:20:21.922Z,5.87
2018-07-20T10:22:50.677Z,7.10
2018-07-20T10:25:19.655Z,9.03
2018-07-20T10:27:48.883Z,8.13
2018-07-20T10:30:17.506Z,5.40
2018-07-20T10:32:46.229Z,4.63
2018-07-20T10:35:14.953Z,6.60
2018-07-20T10:37:43.723Z,9.23
2018-07-20T10:40:12.189Z,5.53
2018-07-20T10:42:40.692Z,5.20
2018-07-20T10:45:09.736Z,4.07
2018-07-20T10:47:38.457Z,9.90
2018-07-20T10:50:07.429Z,4.60
2018-07-20T10:52:36.023Z,8.17
2018-07-20T10:55:04.840Z,7.47
2018-07-20T10:57:33.509Z,5.53
2018-07-20T11:00:02.032Z,8.30
2018-07-20T11:02:30.683Z,6.20
2018-07-20T11:04:59.345Z,6.53
2018-07-20T11:07:27.952Z,14.03
2018-07-20T11:09:56.450Z,5.20
2018-07-20T11:12:25.117Z,5.83
2018-07-20T11:14:53.590Z,4.83
2018-07-20T11:17:22.021Z,12.17
2018-07-20T11:19:50.405Z,12.47
2018-07-20T11:22:19.061Z,14.63
2018-07-20T11:24:47.946Z,5.20
2018-07-20T11:27:16.453Z,7.30
2018-07-20T11:29:44.913Z,7.23
2018-07-20T11:32:13.245Z,6.40
2018-07-20T11:34:41.689Z,6.43
2018-07-20T11:37:10.256Z,11.90
2018-07-20T11:39:38.797Z,4.20
2018-07-20T11:42:07.210Z,6.40
2018-07-20T11:44:35.636Z,10.40
2018-07-20T11:47:04.244Z,6.77
2018-07-20T11:49:32.694Z,8.63
2018-07-20T11:52:01.136Z,6.70
2018-07-20T11:54:29.532Z,7.20
2018-07-20T11:56:58.160Z,10.47
2018-07-20T11:59:26.656Z,10.33
2018-07-20T12:01:55.139Z,8.73
2018-07-20T12:04:23.467Z,5.10
2018-07-20T12:06:52.092Z,6.53
2018-07-20T12:09:20.549Z,9.57
2018-07-20T12:11:49.199Z,7.63
2018-07-20T12:14:17.881Z,9.63
2018-07-20T12:16:47.174Z,7.80
2018-07-20T12:19:15.578Z,5.93
2018-07-20T12:21:43.956Z,6.00
2018-07-20T12:24:12.611Z,7.67
2018-07-20T12:26:41.121Z,6.97
2018-07-20T12:29:09.606Z,11.87
2018-07-20T12:31:38.207Z,11.50
2018-07-20T12:34:07.710Z,7.23
2018-07-20T12:36:36.256Z,8.70
2018-07-20T12:39:06.292Z,6.63
2018-07-20T12:41:34.726Z,11.20
2018-07-20T12:44:03.100Z,8.43
2018-07-20T12:46:31.690Z,14.13
2018-07-20T12:49:00.393Z,6.67
2018-07-20T12:51:29.037Z,9.37
2018-07-20T12:53:57.713Z,7.27
2018-07-20T12:56:26.402Z,14.70
2018-07-20T12:58:56.091Z,15.30
2018-07-20T13:01:24.528Z,28.13
2018-07-20T13:03:53.134Z,24.87
2018-07-20T13:06:21.691Z,13.63
2018-07-20T13:08:50.132Z,11.77
2018-07-20T13:11:18.505Z,13.67
2018-07-20T13:13:46.905Z,12.07
2018-07-20T13:16:15.516Z,9.07
2018-07-20T13:18:44.219Z,8.40
2018-07-20T13:21:12.924Z,8.77
2018-07-20T13:23:41.682Z,11.33
2018-07-20T13:26:10.117Z,9.67
2018-07-20T13:28:38.511Z,12.60
2018-07-20T13:31:07.102Z,13.17
2018-07-20T13:33:35.600Z,9.67
2018-07-20T13:36:03.978Z,10.70
2018-07-20T13:38:32.444Z,13.37
2018-07-20T13:41:00.903Z,9.90
2018-07-20T13:43:29.501Z,16.23
2018-07-20T13:45:58.265Z,10.73
2018-07-20T13:48:27.019Z,12.43
2018-07-20T13:50:56.346Z,12.87
2018-07-20T13:53:24.868Z,11.10
2018-07-20T13:55:53.525Z,11.43
2018-07-20T13:58:22.235Z,15.10
2018-07-20T14:00:50.924Z,8.90
2018-07-20T14:03:19.821Z,17.07
2018-07-20T14:05:48.277Z,13.30
2018-07-20T14:08:16.921Z,12.27
2018-07-20T14:10:45.590Z,9.67
2018-07-20T14:13:14.059Z,11.83
2018-07-20T14:15:42.672Z,11.70
2018-07-20T14:18:11.346Z,13.93
2018-07-20T14:20:39.819Z,22.33
2018-07-20T14:23:08.165Z,15.70
2018-07-20T14:25:36.540Z,12.87
2018-07-20T14:28:04.912Z,11.87
2018-07-20T14:30:33.546Z,12.60
2018-07-20T14:33:02.349Z,16.67
2018-07-20T14:35:30.932Z,11.73
2018-07-20T14:37:59.325Z,13.03
2018-07-20T14:40:27.688Z,10.83
2018-07-20T14:42:56.145Z,17.77
2018-07-20T14:45:24.743Z,15.00
2018-07-20T14:47:53.237Z,21.50
2018-07-20T14:50:21.869Z,14.70
2018-07-20T14:52:50.535Z,16.93
2018-07-20T14:55:19.267Z,16.67
2018-07-20T14:57:47.776Z,14.43
2018-07-20T15:00:16.172Z,16.33
2018-07-20T15:02:44.811Z,14.63
2018-07-20T15:05:13.481Z,13.83
2018-07-20T15:07:43.161Z,12.87
2018-07-20T15:10:11.867Z,11.00
2018-07-20T15:12:40.569Z,11.30
2018-07-20T15:15:09.598Z,11.40
2018-07-20T15:17:38.394Z,20.67
2018-07-20T15:20:07.543Z,13.67
2018-07-20T15:22:36.275Z,12.67
2018-07-20T15:25:04.718Z,12.17
2018-07-20T15:27:33.230Z,15.40
2018-07-20T15:30:02.081Z,13.07
2018-07-20T15:33:33.991Z,12.37
2018-07-20T15:36:02.577Z,11.57
2018-07-20T15:38:31.030Z,12.23
2018-07-20T15:40:59.539Z,15.00
2018-07-20T15:43:28.173Z,15.80
2018-07-20T15:46:05.861Z,12.67
2018-07-20T15:48:25.563Z,11.97
2018-07-20T15:50:54.290Z,12.13
2018-07-20T15:53:37.833Z,22.17
2018-07-20T15:55:51.396Z,18.57
2018-07-20T15:58:20.087Z,10.87
2018-07-20T16:00:48.787Z,13.20
2018-07-20T16:03:17.566Z,18.43
2018-07-20T16:05:46.363Z,12.13
2018-07-20T16:08:15.536Z,13.23
2018-07-20T16:10:44.059Z,13.17
2018-07-20T16:13:12.464Z,10.80
2018-07-20T16:15:41.082Z,17.03
2018-07-20T16:18:09.887Z,12.30
2018-07-20T16:20:38.589Z,12.13
2018-07-20T16:23:07.313Z,11.83
2018-07-20T16:25:35.947Z,13.63
2018-07-20T16:28:04.240Z,15.63
2018-07-20T16:30:32.701Z,14.80
2018-07-20T16:33:01.152Z,16.27
2018-07-20T16:35:29.511Z,17.40
2018-07-20T16:37:57.870Z,17.13
2018-07-20T16:40:26.587Z,12.50
2018-07-20T16:42:55.281Z,10.27
2018-07-20T16:45:23.800Z,15.63
2018-07-20T16:47:52.386Z,14.17
2018-07-20T16:50:21.069Z,11.50
2018-07-20T16:52:49.817Z,13.40
2018-07-20T16:55:18.301Z,13.10
2018-07-20T16:57:46.727Z,13.20
2018-07-20T17:00:15.087Z,18.87
2018-07-20T17:02:43.528Z,14.00
2018-07-20T17:05:12.113Z,11.73
2018-07-20T17:07:40.877Z,13.20
2018-07-20T17:10:09.385Z,14.67
2018-07-20T17:12:37.862Z,11.43
2018-07-20T17:15:06.308Z,11.50
2018-07-20T17:17:34.740Z,12.27
2018-07-20T17:20:03.376Z,15.50
2018-07-20T17:22:32.117Z,11.93
2018-07-20T17:25:00.612Z,13.57
2018-07-20T17:27:29.108Z,11.87
2018-07-20T17:29:57.500Z,12.67
2018-07-20T17:32:25.923Z,14.20
2018-07-20T17:34:54.349Z,15.03
2018-07-20T17:37:23.021Z,11.13
2018-07-20T17:39:51.760Z,13.57
2018-07-20T17:42:20.318Z,19.47
2018-07-20T17:44:48.790Z,14.33
2018-07-20T17:47:17.389Z,14.73
2018-07-20T17:49:46.113Z,17.27
2018-07-20T17:52:14.833Z,18.13
2018-07-20T17:54:43.383Z,19.80
2018-07-20T17:57:12.024Z,18.90
2018-07-20T17:59:40.692Z,21.73
2018-07-20T18:02:09.152Z,20.23
2018-07-20T18:04:37.583Z,17.10
2018-07-20T18:07:05.964Z,17.77
2018-07-20T18:09:34.604Z,15.07
2018-07-20T18:12:03.334Z,19.57
2018-07-20T18:14:31.801Z,23.00
2018-07-20T18:17:00.199Z,17.53
2018-07-20T18:19:28.563Z,26.23
2018-07-20T18:21:57.001Z,20.70
2018-07-20T18:24:25.650Z,15.87
2018-07-20T18:26:54.389Z,17.83
2018-07-20T18:29:22.845Z,22.53
2018-07-20T18:31:51.220Z,23.63
2018-07-20T18:34:19.910Z,27.40
2018-07-20T18:36:48.607Z,20.33
2018-07-20T18:39:17.324Z,17.07
2018-07-20T18:41:45.941Z,19.83
2018-07-20T18:44:14.505Z,20.27
2018-07-20T18:46:42.996Z,18.07
2018-07-20T18:49:11.384Z,28.57
2018-07-20T18:51:39.998Z,17.93
2018-07-20T18:54:08.553Z,19.63
2018-07-20T18:56:36.928Z,27.53
2018-07-20T19:00:41.822Z,19.43
2018-07-20T19:03:11.484Z,14.87
2018-07-20T19:05:39.973Z,17.43
2018-07-20T19:08:08.404Z,21.57
2018-07-20T19:10:36.832Z,21.80
2018-07-20T19:13:05.580Z,20.20
2018-07-20T19:15:34.289Z,20.13
2018-07-20T19:18:03.263Z,15.93
2018-07-20T19:20:31.775Z,17.30
2018-07-20T19:23:01.225Z,18.40
2018-07-20T19:25:30.014Z,17.03
2018-07-20T19:27:58.852Z,15.07
2018-07-20T19:30:27.380Z,17.53
2018-07-20T19:32:56.003Z,20.83
2018-07-20T19:35:24.518Z,18.97
2018-07-20T19:37:53.156Z,19.33
2018-07-20T19:40:21.736Z,19.23
2018-07-20T19:42:50.325Z,15.77
2018-07-20T19:45:18.808Z,17.33
2018-07-20T19:47:47.217Z,15.93
2018-07-20T19:50:15.616Z,18.30
2018-07-20T19:52:44.025Z,19.47
2018-07-20T19:55:13.479Z,26.70
2018-07-20T19:57:46.184Z,23.93
2018-07-20T20:00:14.649Z,15.10
2018-07-20T20:02:43.326Z,20.50
2018-07-20T20:05:12.066Z,12.40
2018-07-20T20:07:40.813Z,14.23
2018-07-20T20:10:09.602Z,12.70
2018-07-20T20:12:38.129Z,14.60
2018-07-20T20:15:06.963Z,13.80
2018-07-20T20:17:35.625Z,13.30
2018-07-20T20:20:07.004Z,12.87
2018-07-20T20:22:37.543Z,16.10
2018-07-20T20:25:06.843Z,14.77
2018-07-20T20:27:35.420Z,17.00
2018-07-20T20:30:03.904Z,14.80
2018-07-20T20:32:32.743Z,12.03
2018-07-20T20:35:01.434Z,16.10
2018-07-20T20:37:30.228Z,20.20
2018-07-20T20:39:58.735Z,21.07
2018-07-20T20:42:27.148Z,18.63
2018-07-20T20:44:55.557Z,13.73
2018-07-20T20:47:23.997Z,11.73
2018-07-20T20:49:52.670Z,17.23
2018-07-20T20:52:21.467Z,12.50
2018-07-20T20:54:50.309Z,21.97
2018-07-20T20:57:18.833Z,19.23
2018-07-20T20:59:47.519Z,16.13
2018-07-20T21:02:16.024Z,11.17
2018-07-20T21:04:44.646Z,12.83
2018-07-20T21:07:13.176Z,12.50
2018-07-20T21:09:41.838Z,10.80
2018-07-20T21:12:11.504Z,11.37
2018-07-20T21:14:40.021Z,13.73
2018-07-20T21:17:08.514Z,13.47
2018-07-20T21:19:37.026Z,14.83
2018-07-20T21:22:05.377Z,18.87
2018-07-20T21:24:34.038Z,11.10
2018-07-20T21:27:02.594Z,13.20
2018-07-20T21:29:31.237Z,10.20
2018-07-20T21:32:00.011Z,10.03
2018-07-20T21:34:28.530Z,8.00
2018-07-20T21:36:57.194Z,10.90
2018-07-20T21:39:25.870Z,11.80
2018-07-20T21:41:54.358Z,16.60
2018-07-20T21:44:22.949Z,18.60
2018-07-20T21:46:54.993Z,16.87
2018-07-20T21:49:23.868Z,15.60
2018-07-20T21:51:52.380Z,10.93
2018-07-20T21:54:22.207Z,20.83
2018-07-20T21:56:52.459Z,11.00
2018-07-20T22:02:07.552Z,10.00
2018-07-20T22:04:36.466Z,8.30
2018-07-20T22:07:05.375Z,9.43
2018-07-20T22:09:35.313Z,9.03
2018-07-20T22:12:03.969Z,11.33
2018-07-20T22:14:32.621Z,9.10
2018-07-20T22:17:01.372Z,10.10
2018-07-20T22:19:30.998Z,7.80
2018-07-20T22:21:59.728Z,8.77
2018-07-20T22:24:28.260Z,12.00
2018-07-20T22:26:56.810Z,7.20
2018-07-20T22:29:25.521Z,12.13
2018-07-20T22:32:05.034Z,8.70
2018-07-20T22:34:38.668Z,5.50
2018-07-20T22:37:11.662Z,5.23
2018-07-20T22:39:40.889Z,10.13
2018-07-20T22:42:09.601Z,5.13
2018-07-20T22:44:38.109Z,8.63
2018-07-20T22:47:06.535Z,7.10
2018-07-20T22:49:42.913Z,6.17
2018-07-20T22:52:13.501Z,15.63
2018-07-20T22:54:58.769Z,7.53
2018-07-20T22:57:27.445Z,6.40
2018-07-20T22:59:56.154Z,12.67
2018-07-20T23:02:24.616Z,7.87
2018-07-20T23:04:53.011Z,8.40
2018-07-20T23:07:21.437Z,11.13
2018-07-20T23:09:52.733Z,7.20
2018-07-20T23:12:21.458Z,7.03
2018-07-20T23:14:49.991Z,9.63
2018-07-20T23:17:18.392Z,6.93
2018-07-20T23:19:46.868Z,5.73
2018-07-20T23:22:15.363Z,12.70
2018-07-20T23:24:44.563Z,12.73
2018-07-20T23:27:13.475Z,8.67
2018-07-20T23:29:41.998Z,10.13
2018-07-20T23:32:13.259Z,6.90
2018-07-20T23:34:42.593Z,5.80
2018-07-20T23:37:10.993Z,4.47
2018-07-20T23:39:39.428Z,5.80
2018-07-20T23:42:08.062Z,11.13
2018-07-20T23:44:36.789Z,7.10
2018-07-20T23:47:05.493Z,7.50
2018-07-20T23:49:34.280Z,5.37
2018-07-20T23:52:03.002Z,4.20
2018-07-20T23:54:31.732Z,4.43
2018-07-20T23:57:00.446Z,3.80
2018-07-20T23:59:29.161Z,8.17
